sensor_id;sensor_type;location;lat;lon;timestamp;pressure;altitude;pressure_sealevel;temperature;humidity
9905;BME280;4991;43.566;27.820;2022-11-20T00:01:17;98478.47;;;13.32;100.00
9905;BME280;4991;43.566;27.820;2022-11-20T00:03:44;98479.09;;;13.37;100.00
9905;BME280;4991;43.566;27.820;2022-11-20T00:06:12;98484.38;;;13.42;100.00
9905;BME280;4991;43.566;27.820;2022-11-20T00:08:38;98473.13;;;13.35;100.00
9905;BME280;4991;43.566;27.820;2022-11-20T00:11:12;98483.72;;;13.45;100.00
9905;BME280;4991;43.566;27.820;2022-11-20T00:13:38;98480.78;;;13.50;100.00
9905;BME280;4991;43.566;27.820;2022-11-20T00:16:06;98483.19;;;13.52;100.00
9905;BME280;4991;43.566;27.820;2022-11-20T00:18:33;98474.66;;;13.53;100.00
9905;BME280;4991;43.566;27.820;2022-11-20T00:21:09;98473.34;;;13.59;100.00
9905;BME280;4991;43.566;27.820;2022-11-20T00:23:35;98474.13;;;13.60;100.00
9905;BME280;4991;43.566;27.820;2022-11-20T00:26:03;98468.78;;;13.63;100.00
9905;BME280;4991;43.566;27.820;2022-11-20T00:28:29;98478.28;;;13.66;100.00
9905;BME280;4991;43.566;27.820;2022-11-20T00:31:14;98468.25;;;13.70;100.00
9905;BME280;4991;43.566;27.820;2022-11-20T00:33:41;98467.63;;;13.73;100.00
9905;BME280;4991;43.566;27.820;2022-11-20T00:36:09;98467.09;;;13.79;100.00
9905;BME280;4991;43.566;27.820;2022-11-20T00:38:35;98469.75;;;13.88;100.00
9905;BME280;4991;43.566;27.820;2022-11-20T00:41:06;98469.16;;;14.03;100.00
9905;BME280;4991;43.566;27.820;2022-11-20T00:43:32;98480.53;;;14.13;100.00
9905;BME280;4991;43.566;27.820;2022-11-20T00:48:23;98456.69;;;14.35;100.00
9905;BME280;4991;43.566;27.820;2022-11-20T00:50:49;98454.69;;;14.44;100.00
9905;BME280;4991;43.566;27.820;2022-11-20T00:53:15;98441.03;;;14.56;100.00
9905;BME280;4991;43.566;27.820;2022-11-20T00:55:40;98436.22;;;14.65;100.00
9905;BME280;4991;43.566;27.820;2022-11-20T00:58:06;98441.63;;;14.73;100.00
9905;BME280;4991;43.566;27.820;2022-11-20T01:00:31;98436.16;;;14.73;100.00
9905;BME280;4991;43.566;27.820;2022-11-20T01:02:57;98446.22;;;14.81;100.00
9905;BME280;4991;43.566;27.820;2022-11-20T01:05:23;98434.44;;;14.81;100.00
9905;BME280;4991;43.566;27.820;2022-11-20T01:07:48;98433.78;;;14.84;100.00
9905;BME280;4991;43.566;27.820;2022-11-20T01:10:14;98436.31;;;14.89;100.00
9905;BME280;4991;43.566;27.820;2022-11-20T01:12:39;98440.06;;;14.96;100.00
9905;BME280;4991;43.566;27.820;2022-11-20T01:15:05;98439.03;;;15.01;100.00
9905;BME280;4991;43.566;27.820;2022-11-20T01:17:31;98437.22;;;15.05;100.00
9905;BME280;4991;43.566;27.820;2022-11-20T01:19:57;98434.50;;;15.17;100.00
9905;BME280;4991;43.566;27.820;2022-11-20T01:22:23;98434.25;;;15.34;100.00
9905;BME280;4991;43.566;27.820;2022-11-20T01:24:48;98432.47;;;15.50;100.00
9905;BME280;4991;43.566;27.820;2022-11-20T01:27:14;98435.75;;;15.68;100.00
9905;BME280;4991;43.566;27.820;2022-11-20T01:29:40;98422.13;;;15.83;100.00
9905;BME280;4991;43.566;27.820;2022-11-20T01:32:05;98418.66;;;15.98;100.00
9905;BME280;4991;43.566;27.820;2022-11-20T01:34:31;98417.81;;;16.10;100.00
9905;BME280;4991;43.566;27.820;2022-11-20T01:36:57;98417.31;;;16.20;100.00
9905;BME280;4991;43.566;27.820;2022-11-20T01:39:24;98416.13;;;16.33;100.00
9905;BME280;4991;43.566;27.820;2022-11-20T01:41:51;98415.06;;;16.37;100.00
9905;BME280;4991;43.566;27.820;2022-11-20T01:47:44;98409.63;;;16.53;100.00
9905;BME280;4991;43.566;27.820;2022-11-20T01:52:59;98396.97;;;16.64;100.00
9905;BME280;4991;43.566;27.820;2022-11-20T01:55:29;98389.88;;;16.63;100.00
9905;BME280;4991;43.566;27.820;2022-11-20T01:57:56;98395.28;;;16.75;100.00
9905;BME280;4991;43.566;27.820;2022-11-20T02:00:23;98402.81;;;16.78;100.00
9905;BME280;4991;43.566;27.820;2022-11-20T02:02:59;98401.06;;;16.86;100.00
9905;BME280;4991;43.566;27.820;2022-11-20T02:05:32;98391.66;;;16.87;100.00
9905;BME280;4991;43.566;27.820;2022-11-20T02:08:02;98387.66;;;16.84;100.00
9905;BME280;4991;43.566;27.820;2022-11-20T02:10:30;98394.84;;;16.89;100.00
9905;BME280;4991;43.566;27.820;2022-11-20T02:12:56;98391.03;;;16.93;100.00
9905;BME280;4991;43.566;27.820;2022-11-20T02:16:01;98395.91;;;17.00;100.00
9905;BME280;4991;43.566;27.820;2022-11-20T02:18:27;98380.22;;;17.00;100.00
9905;BME280;4991;43.566;27.820;2022-11-20T02:20:59;98393.59;;;17.02;100.00
9905;BME280;4991;43.566;27.820;2022-11-20T02:23:36;98380.28;;;17.04;100.00
9905;BME280;4991;43.566;27.820;2022-11-20T02:26:06;98383.84;;;17.04;100.00
9905;BME280;4991;43.566;27.820;2022-11-20T02:28:33;98396.44;;;17.05;100.00
9905;BME280;4991;43.566;27.820;2022-11-20T02:30:58;98387.84;;;17.07;100.00
9905;BME280;4991;43.566;27.820;2022-11-20T02:33:24;98383.41;;;17.02;100.00
9905;BME280;4991;43.566;27.820;2022-11-20T02:35:49;98372.41;;;17.02;100.00
9905;BME280;4991;43.566;27.820;2022-11-20T02:38:15;98372.94;;;17.08;100.00
9905;BME280;4991;43.566;27.820;2022-11-20T02:40:41;98360.69;;;17.05;100.00
9905;BME280;4991;43.566;27.820;2022-11-20T02:43:07;98370.59;;;17.10;100.00
9905;BME280;4991;43.566;27.820;2022-11-20T02:45:33;98366.00;;;17.14;100.00
9905;BME280;4991;43.566;27.820;2022-11-20T02:47:59;98358.56;;;17.14;100.00
9905;BME280;4991;43.566;27.820;2022-11-20T02:50:25;98358.97;;;17.16;100.00
9905;BME280;4991;43.566;27.820;2022-11-20T02:52:51;98364.84;;;17.15;100.00
9905;BME280;4991;43.566;27.820;2022-11-20T02:55:16;98351.44;;;17.13;100.00
9905;BME280;4991;43.566;27.820;2022-11-20T02:57:42;98345.56;;;17.15;100.00
9905;BME280;4991;43.566;27.820;2022-11-20T03:00:08;98344.53;;;17.19;100.00
9905;BME280;4991;43.566;27.820;2022-11-20T03:02:34;98341.41;;;17.21;100.00
9905;BME280;4991;43.566;27.820;2022-11-20T03:05:00;98338.31;;;17.22;100.00
9905;BME280;4991;43.566;27.820;2022-11-20T03:07:26;98344.25;;;17.24;100.00
9905;BME280;4991;43.566;27.820;2022-11-20T03:09:51;98340.25;;;17.22;100.00
9905;BME280;4991;43.566;27.820;2022-11-20T03:12:17;98346.63;;;17.26;100.00
9905;BME280;4991;43.566;27.820;2022-11-20T03:14:43;98326.47;;;17.22;100.00
9905;BME280;4991;43.566;27.820;2022-11-20T03:17:08;98352.00;;;17.38;100.00
9905;BME280;4991;43.566;27.820;2022-11-20T03:19:34;98354.47;;;17.43;100.00
9905;BME280;4991;43.566;27.820;2022-11-20T03:22:00;98345.81;;;17.41;100.00
9905;BME280;4991;43.566;27.820;2022-11-20T03:24:26;98334.06;;;17.44;100.00
9905;BME280;4991;43.566;27.820;2022-11-20T03:26:52;98344.41;;;17.47;100.00
9905;BME280;4991;43.566;27.820;2022-11-20T03:29:17;98337.31;;;17.46;100.00
9905;BME280;4991;43.566;27.820;2022-11-20T03:31:43;98345.28;;;17.51;100.00
9905;BME280;4991;43.566;27.820;2022-11-20T03:34:10;98329.97;;;17.53;100.00
9905;BME280;4991;43.566;27.820;2022-11-20T03:36:41;98321.81;;;17.41;100.00
9905;BME280;4991;43.566;27.820;2022-11-20T03:39:08;98328.81;;;17.54;100.00
9905;BME280;4991;43.566;27.820;2022-11-20T03:41:41;98331.84;;;17.49;100.00
9905;BME280;4991;43.566;27.820;2022-11-20T03:44:09;98327.59;;;17.52;100.00
9905;BME280;4991;43.566;27.820;2022-11-20T03:46:34;98320.22;;;17.56;100.00
9905;BME280;4991;43.566;27.820;2022-11-20T03:49:00;98305.13;;;17.50;100.00
9905;BME280;4991;43.566;27.820;2022-11-20T03:51:34;98307.97;;;17.53;100.00
9905;BME280;4991;43.566;27.820;2022-11-20T03:54:03;98298.19;;;17.56;100.00
9905;BME280;4991;43.566;27.820;2022-11-20T03:56:31;98292.53;;;17.49;100.00
9905;BME280;4991;43.566;27.820;2022-11-20T03:58:58;98292.69;;;17.56;100.00
9905;BME280;4991;43.566;27.820;2022-11-20T04:01:26;98282.38;;;17.53;100.00
9905;BME280;4991;43.566;27.820;2022-11-20T04:03:53;98255.63;;;17.34;100.00
9905;BME280;4991;43.566;27.820;2022-11-20T04:06:25;98277.53;;;17.46;100.00
9905;BME280;4991;43.566;27.820;2022-11-20T04:08:51;98264.44;;;17.43;100.00
9905;BME280;4991;43.566;27.820;2022-11-20T04:11:24;98274.66;;;17.43;100.00
9905;BME280;4991;43.566;27.820;2022-11-20T04:13:52;98274.94;;;17.38;100.00
9905;BME280;4991;43.566;27.820;2022-11-20T04:16:18;98276.38;;;17.32;100.00
9905;BME280;4991;43.566;27.820;2022-11-20T04:18:44;98274.44;;;17.32;100.00
9905;BME280;4991;43.566;27.820;2022-11-20T04:21:10;98273.19;;;17.30;100.00
9905;BME280;4991;43.566;27.820;2022-11-20T04:23:36;98266.47;;;17.27;100.00
9905;BME280;4991;43.566;27.820;2022-11-20T04:26:07;98264.16;;;17.29;100.00
9905;BME280;4991;43.566;27.820;2022-11-20T04:28:32;98272.84;;;17.31;100.00
9905;BME280;4991;43.566;27.820;2022-11-20T04:31:05;98268.06;;;17.28;100.00
9905;BME280;4991;43.566;27.820;2022-11-20T04:33:32;98277.75;;;17.22;100.00
9905;BME280;4991;43.566;27.820;2022-11-20T04:38:35;98298.69;;;17.27;100.00
9905;BME280;4991;43.566;27.820;2022-11-20T04:41:04;98304.47;;;17.22;100.00
9905;BME280;4991;43.566;27.820;2022-11-20T04:43:30;98292.31;;;17.23;100.00
9905;BME280;4991;43.566;27.820;2022-11-20T04:45:57;98292.59;;;17.18;100.00
9905;BME280;4991;43.566;27.820;2022-11-20T04:48:24;98298.88;;;17.18;100.00
9905;BME280;4991;43.566;27.820;2022-11-20T04:50:51;98302.44;;;17.19;100.00
9905;BME280;4991;43.566;27.820;2022-11-20T04:53:17;98305.84;;;17.12;100.00
9905;BME280;4991;43.566;27.820;2022-11-20T04:55:43;98302.63;;;17.10;100.00
9905;BME280;4991;43.566;27.820;2022-11-20T04:58:08;98314.34;;;17.07;100.00
9905;BME280;4991;43.566;27.820;2022-11-20T05:00:34;98313.56;;;17.07;100.00
9905;BME280;4991;43.566;27.820;2022-11-20T05:03:00;98315.16;;;17.08;100.00
9905;BME280;4991;43.566;27.820;2022-11-20T05:05:25;98322.16;;;17.05;100.00
9905;BME280;4991;43.566;27.820;2022-11-20T05:07:51;98311.44;;;17.00;100.00
9905;BME280;4991;43.566;27.820;2022-11-20T05:10:17;98318.09;;;16.99;100.00
9905;BME280;4991;43.566;27.820;2022-11-20T05:12:42;98328.38;;;16.87;100.00
9905;BME280;4991;43.566;27.820;2022-11-20T05:15:08;98329.75;;;16.93;100.00
9905;BME280;4991;43.566;27.820;2022-11-20T05:17:34;98335.59;;;16.91;100.00
9905;BME280;4991;43.566;27.820;2022-11-20T05:20:00;98336.56;;;16.99;100.00
9905;BME280;4991;43.566;27.820;2022-11-20T05:22:25;98333.34;;;16.97;100.00
9905;BME280;4991;43.566;27.820;2022-11-20T05:24:51;98341.59;;;16.97;100.00
9905;BME280;4991;43.566;27.820;2022-11-20T05:27:16;98331.84;;;16.99;100.00
9905;BME280;4991;43.566;27.820;2022-11-20T05:29:42;98328.75;;;17.01;100.00
9905;BME280;4991;43.566;27.820;2022-11-20T05:32:08;98325.63;;;17.02;100.00
9905;BME280;4991;43.566;27.820;2022-11-20T05:34:35;98318.72;;;16.93;100.00
9905;BME280;4991;43.566;27.820;2022-11-20T05:37:02;98318.38;;;16.94;100.00
9905;BME280;4991;43.566;27.820;2022-11-20T05:39:28;98315.25;;;16.96;100.00
9905;BME280;4991;43.566;27.820;2022-11-20T05:41:54;98324.31;;;16.96;100.00
9905;BME280;4991;43.566;27.820;2022-11-20T05:44:38;98327.13;;;17.00;100.00
9905;BME280;4991;43.566;27.820;2022-11-20T05:47:04;98324.06;;;17.01;100.00
9905;BME280;4991;43.566;27.820;2022-11-20T05:49:30;98313.38;;;17.00;100.00
9905;BME280;4991;43.566;27.820;2022-11-20T05:51:55;98331.41;;;16.97;100.00
9905;BME280;4991;43.566;27.820;2022-11-20T05:54:21;98334.25;;;17.01;100.00
9905;BME280;4991;43.566;27.820;2022-11-20T05:56:47;98335.38;;;17.00;100.00
9905;BME280;4991;43.566;27.820;2022-11-20T05:59:12;98327.59;;;17.02;100.00
9905;BME280;4991;43.566;27.820;2022-11-20T06:01:38;98333.88;;;17.02;100.00
9905;BME280;4991;43.566;27.820;2022-11-20T06:04:03;98330.88;;;17.07;100.00
9905;BME280;4991;43.566;27.820;2022-11-20T06:06:29;98330.06;;;17.07;100.00
9905;BME280;4991;43.566;27.820;2022-11-20T06:08:55;98325.81;;;17.09;100.00
9905;BME280;4991;43.566;27.820;2022-11-20T06:11:21;98340.69;;;17.08;100.00
9905;BME280;4991;43.566;27.820;2022-11-20T06:13:47;98334.84;;;17.10;100.00
9905;BME280;4991;43.566;27.820;2022-11-20T06:16:15;98329.44;;;17.13;100.00
9905;BME280;4991;43.566;27.820;2022-11-20T06:18:41;98338.56;;;17.17;100.00
9905;BME280;4991;43.566;27.820;2022-11-20T06:21:13;98336.53;;;17.14;100.00
9905;BME280;4991;43.566;27.820;2022-11-20T06:23:39;98335.38;;;17.15;100.00
9905;BME280;4991;43.566;27.820;2022-11-20T06:26:08;98335.91;;;17.21;100.00
9905;BME280;4991;43.566;27.820;2022-11-20T06:28:34;98324.97;;;17.24;100.00
9905;BME280;4991;43.566;27.820;2022-11-20T06:30:59;98337.22;;;17.27;100.00
9905;BME280;4991;43.566;27.820;2022-11-20T06:33:25;98328.31;;;17.33;100.00
9905;BME280;4991;43.566;27.820;2022-11-20T06:35:51;98342.63;;;17.39;100.00
9905;BME280;4991;43.566;27.820;2022-11-20T06:38:17;98331.78;;;17.46;100.00
9905;BME280;4991;43.566;27.820;2022-11-20T06:40:43;98323.59;;;17.49;100.00
9905;BME280;4991;43.566;27.820;2022-11-20T06:43:09;98325.72;;;17.56;100.00
9905;BME280;4991;43.566;27.820;2022-11-20T06:45:36;98324.28;;;17.62;100.00
9905;BME280;4991;43.566;27.820;2022-11-20T06:48:02;98335.44;;;17.69;100.00
9905;BME280;4991;43.566;27.820;2022-11-20T06:50:28;98331.25;;;17.75;100.00
9905;BME280;4991;43.566;27.820;2022-11-20T06:52:54;98322.75;;;17.83;100.00
9905;BME280;4991;43.566;27.820;2022-11-20T06:55:19;98300.72;;;17.83;100.00
9905;BME280;4991;43.566;27.820;2022-11-20T06:57:45;98304.56;;;17.98;100.00
9905;BME280;4991;43.566;27.820;2022-11-20T07:00:11;98317.66;;;18.04;100.00
9905;BME280;4991;43.566;27.820;2022-11-20T07:02:37;98300.34;;;18.04;100.00
9905;BME280;4991;43.566;27.820;2022-11-20T07:05:03;98327.19;;;18.07;100.00
9905;BME280;4991;43.566;27.820;2022-11-20T07:07:29;98311.00;;;18.06;100.00
9905;BME280;4991;43.566;27.820;2022-11-20T07:09:55;98323.69;;;18.10;100.00
9905;BME280;4991;43.566;27.820;2022-11-20T07:12:21;98287.13;;;18.13;100.00
9905;BME280;4991;43.566;27.820;2022-11-20T07:14:46;98323.47;;;18.19;100.00
9905;BME280;4991;43.566;27.820;2022-11-20T07:17:12;98321.94;;;18.21;100.00
9905;BME280;4991;43.566;27.820;2022-11-20T07:19:38;98323.59;;;18.26;100.00
9905;BME280;4991;43.566;27.820;2022-11-20T07:22:04;98315.75;;;18.28;100.00
9905;BME280;4991;43.566;27.820;2022-11-20T07:24:30;98319.75;;;18.30;100.00
9905;BME280;4991;43.566;27.820;2022-11-20T07:26:55;98315.88;;;18.35;100.00
9905;BME280;4991;43.566;27.820;2022-11-20T07:29:21;98322.00;;;18.44;100.00
9905;BME280;4991;43.566;27.820;2022-11-20T07:31:46;98317.34;;;18.48;100.00
9905;BME280;4991;43.566;27.820;2022-11-20T07:34:12;98322.13;;;18.51;100.00
9905;BME280;4991;43.566;27.820;2022-11-20T07:36:38;98311.88;;;18.51;100.00
9905;BME280;4991;43.566;27.820;2022-11-20T07:39:04;98314.78;;;18.58;100.00
9905;BME280;4991;43.566;27.820;2022-11-20T07:41:29;98315.56;;;18.59;100.00
9905;BME280;4991;43.566;27.820;2022-11-20T07:43:55;98331.03;;;18.63;100.00
9905;BME280;4991;43.566;27.820;2022-11-20T07:46:21;98327.47;;;18.63;100.00
9905;BME280;4991;43.566;27.820;2022-11-20T07:48:46;98326.34;;;18.67;100.00
9905;BME280;4991;43.566;27.820;2022-11-20T07:51:12;98318.63;;;18.76;100.00
9905;BME280;4991;43.566;27.820;2022-11-20T07:53:39;98331.94;;;18.71;100.00
9905;BME280;4991;43.566;27.820;2022-11-20T07:56:07;98319.38;;;18.73;100.00
9905;BME280;4991;43.566;27.820;2022-11-20T07:58:32;98315.31;;;18.67;100.00
9905;BME280;4991;43.566;27.820;2022-11-20T08:01:06;98316.19;;;18.71;100.00
9905;BME280;4991;43.566;27.820;2022-11-20T08:03:32;98326.34;;;18.67;100.00
9905;BME280;4991;43.566;27.820;2022-11-20T08:05:59;98321.81;;;18.78;100.00
9905;BME280;4991;43.566;27.820;2022-11-20T08:08:26;98329.72;;;18.80;100.00
9905;BME280;4991;43.566;27.820;2022-11-20T08:10:52;98324.34;;;18.87;100.00
9905;BME280;4991;43.566;27.820;2022-11-20T08:13:38;98333.09;;;18.92;100.00
9905;BME280;4991;43.566;27.820;2022-11-20T08:16:23;98349.19;;;18.90;100.00
9905;BME280;4991;43.566;27.820;2022-11-20T08:18:49;98336.16;;;18.87;100.00
9905;BME280;4991;43.566;27.820;2022-11-20T08:21:15;98346.34;;;18.83;100.00
9905;BME280;4991;43.566;27.820;2022-11-20T08:23:40;98350.75;;;18.88;100.00
9905;BME280;4991;43.566;27.820;2022-11-20T08:26:09;98348.00;;;18.88;100.00
9905;BME280;4991;43.566;27.820;2022-11-20T08:28:34;98346.13;;;18.95;100.00
9905;BME280;4991;43.566;27.820;2022-11-20T08:31:04;98343.31;;;18.92;100.00
9905;BME280;4991;43.566;27.820;2022-11-20T08:33:30;98341.03;;;18.97;100.00
9905;BME280;4991;43.566;27.820;2022-11-20T08:36:04;98333.81;;;18.89;100.00
9905;BME280;4991;43.566;27.820;2022-11-20T08:38:31;98350.88;;;18.95;100.00
9905;BME280;4991;43.566;27.820;2022-11-20T08:41:03;98358.03;;;18.99;100.00
9905;BME280;4991;43.566;27.820;2022-11-20T08:43:49;98339.41;;;18.93;100.00
9905;BME280;4991;43.566;27.820;2022-11-20T08:46:16;98340.69;;;18.99;100.00
9905;BME280;4991;43.566;27.820;2022-11-20T08:48:43;98351.28;;;18.97;100.00
9905;BME280;4991;43.566;27.820;2022-11-20T08:51:10;98348.88;;;18.95;100.00
9905;BME280;4991;43.566;27.820;2022-11-20T08:53:36;98352.97;;;19.01;100.00
9905;BME280;4991;43.566;27.820;2022-11-20T08:56:03;98335.53;;;18.97;100.00
9905;BME280;4991;43.566;27.820;2022-11-20T08:58:28;98338.72;;;18.99;100.00
9905;BME280;4991;43.566;27.820;2022-11-20T09:00:54;98336.41;;;19.01;100.00
9905;BME280;4991;43.566;27.820;2022-11-20T09:03:20;98326.63;;;19.07;100.00
9905;BME280;4991;43.566;27.820;2022-11-20T09:05:45;98319.66;;;19.17;100.00
9905;BME280;4991;43.566;27.820;2022-11-20T09:08:11;98303.47;;;19.15;100.00
9905;BME280;4991;43.566;27.820;2022-11-20T09:10:37;98319.72;;;19.20;100.00
9905;BME280;4991;43.566;27.820;2022-11-20T09:13:06;98327.56;;;19.18;100.00
9905;BME280;4991;43.566;27.820;2022-11-20T09:15:33;98318.56;;;19.21;100.00
9905;BME280;4991;43.566;27.820;2022-11-20T09:18:01;98318.56;;;19.21;100.00
9905;BME280;4991;43.566;27.820;2022-11-20T09:20:29;98303.22;;;19.24;100.00
9905;BME280;4991;43.566;27.820;2022-11-20T09:22:55;98314.88;;;19.37;100.00
9905;BME280;4991;43.566;27.820;2022-11-20T09:25:21;98295.91;;;19.35;100.00
9905;BME280;4991;43.566;27.820;2022-11-20T09:27:47;98296.16;;;19.26;100.00
9905;BME280;4991;43.566;27.820;2022-11-20T09:30:14;98306.16;;;19.35;100.00
9905;BME280;4991;43.566;27.820;2022-11-20T09:32:40;98306.53;;;19.33;100.00
9905;BME280;4991;43.566;27.820;2022-11-20T09:35:07;98316.91;;;19.40;100.00
9905;BME280;4991;43.566;27.820;2022-11-20T09:37:33;98315.66;;;19.37;100.00
9905;BME280;4991;43.566;27.820;2022-11-20T09:39:58;98320.44;;;19.40;100.00
9905;BME280;4991;43.566;27.820;2022-11-20T09:42:34;98318.00;;;19.35;100.00
9905;BME280;4991;43.566;27.820;2022-11-20T09:50:49;98319.41;;;19.25;100.00
9905;BME280;4991;43.566;27.820;2022-11-20T09:53:37;98321.06;;;19.30;100.00
9905;BME280;4991;43.566;27.820;2022-11-20T09:56:11;98316.34;;;19.31;100.00
9905;BME280;4991;43.566;27.820;2022-11-20T09:58:45;98316.84;;;19.36;100.00
9905;BME280;4991;43.566;27.820;2022-11-20T10:01:21;98324.09;;;19.48;100.00
9905;BME280;4991;43.566;27.820;2022-11-20T10:06:28;98327.31;;;19.27;100.00
9905;BME280;4991;43.566;27.820;2022-11-20T10:30:15;98295.78;;;19.28;100.00
9905;BME280;4991;43.566;27.820;2022-11-20T10:32:51;98298.66;;;19.35;100.00
9905;BME280;4991;43.566;27.820;2022-11-20T10:35:38;98301.03;;;19.33;100.00
9905;BME280;4991;43.566;27.820;2022-11-20T10:38:14;98303.91;;;19.44;100.00
9905;BME280;4991;43.566;27.820;2022-11-20T10:40:49;98291.78;;;19.25;100.00
9905;BME280;4991;43.566;27.820;2022-11-20T10:43:21;98292.78;;;19.37;100.00
9905;BME280;4991;43.566;27.820;2022-11-20T10:46:15;98288.00;;;19.34;100.00
9905;BME280;4991;43.566;27.820;2022-11-20T10:48:43;98300.44;;;19.24;100.00
9905;BME280;4991;43.566;27.820;2022-11-20T10:54:06;98305.38;;;19.34;100.00
9905;BME280;4991;43.566;27.820;2022-11-20T10:56:38;98305.47;;;19.41;100.00
9905;BME280;4991;43.566;27.820;2022-11-20T11:01:44;98303.84;;;19.37;100.00
9905;BME280;4991;43.566;27.820;2022-11-20T11:04:30;98300.50;;;19.27;100.00
9905;BME280;4991;43.566;27.820;2022-11-20T11:09:54;98304.50;;;19.30;100.00
9905;BME280;4991;43.566;27.820;2022-11-20T11:12:21;98320.53;;;19.21;100.00
9905;BME280;4991;43.566;27.820;2022-11-20T11:14:53;98340.97;;;19.16;100.00
9905;BME280;4991;43.566;27.820;2022-11-20T11:17:29;98335.44;;;18.07;100.00
9905;BME280;4991;43.566;27.820;2022-11-20T11:22:34;98365.47;;;15.79;100.00
9905;BME280;4991;43.566;27.820;2022-11-20T11:25:22;98374.72;;;14.98;100.00
9905;BME280;4991;43.566;27.820;2022-11-20T11:27:50;98366.75;;;14.37;100.00
9905;BME280;4991;43.566;27.820;2022-11-20T11:30:17;98358.06;;;14.02;100.00
9905;BME280;4991;43.566;27.820;2022-11-20T11:32:44;98349.22;;;13.64;100.00
9905;BME280;4991;43.566;27.820;2022-11-20T11:35:26;98371.94;;;13.35;100.00
9905;BME280;4991;43.566;27.820;2022-11-20T11:38:00;98382.78;;;13.23;100.00
9905;BME280;4991;43.566;27.820;2022-11-20T11:40:31;98391.94;;;13.27;100.00
9905;BME280;4991;43.566;27.820;2022-11-20T11:42:59;98406.47;;;13.19;100.00
9905;BME280;4991;43.566;27.820;2022-11-20T11:45:26;98398.66;;;13.00;100.00
9905;BME280;4991;43.566;27.820;2022-11-20T11:47:56;98392.66;;;12.78;100.00
9905;BME280;4991;43.566;27.820;2022-11-20T11:50:28;98405.19;;;12.70;100.00
9905;BME280;4991;43.566;27.820;2022-11-20T11:53:21;98414.34;;;12.74;100.00
9905;BME280;4991;43.566;27.820;2022-11-20T11:55:54;98400.72;;;12.66;100.00
9905;BME280;4991;43.566;27.820;2022-11-20T11:58:46;98400.69;;;12.74;100.00
9905;BME280;4991;43.566;27.820;2022-11-20T12:04:21;98414.50;;;12.78;100.00
9905;BME280;4991;43.566;27.820;2022-11-20T12:06:58;98390.63;;;12.95;100.00
9905;BME280;4991;43.566;27.820;2022-11-20T12:09:35;98393.50;;;13.08;100.00
9905;BME280;4991;43.566;27.820;2022-11-20T12:12:09;98389.81;;;13.04;100.00
9905;BME280;4991;43.566;27.820;2022-11-20T12:14:39;98395.56;;;13.11;100.00
9905;BME280;4991;43.566;27.820;2022-11-20T12:17:09;98394.75;;;13.10;100.00
9905;BME280;4991;43.566;27.820;2022-11-20T12:19:36;98395.75;;;13.06;100.00
9905;BME280;4991;43.566;27.820;2022-11-20T12:30:21;98388.16;;;13.40;100.00
9905;BME280;4991;43.566;27.820;2022-11-20T12:33:03;98394.53;;;13.53;100.00
9905;BME280;4991;43.566;27.820;2022-11-20T12:43:27;98381.19;;;13.92;100.00
9905;BME280;4991;43.566;27.820;2022-11-20T12:51:38;98379.41;;;14.74;100.00
9905;BME280;4991;43.566;27.820;2022-11-20T12:56:46;98365.22;;;15.08;100.00
9905;BME280;4991;43.566;27.820;2022-11-20T13:01:56;98361.69;;;15.31;100.00
9905;BME280;4991;43.566;27.820;2022-11-20T13:04:43;98357.09;;;15.47;100.00
9905;BME280;4991;43.566;27.820;2022-11-20T13:07:13;98358.06;;;15.67;100.00
9905;BME280;4991;43.566;27.820;2022-11-20T13:09:48;98344.78;;;15.81;100.00
9905;BME280;4991;43.566;27.820;2022-11-20T13:14:58;98351.81;;;15.94;100.00
9905;BME280;4991;43.566;27.820;2022-11-20T13:17:36;98351.94;;;15.98;100.00
9905;BME280;4991;43.566;27.820;2022-11-20T13:20:12;98360.38;;;16.05;100.00
9905;BME280;4991;43.566;27.820;2022-11-20T13:22:49;98364.84;;;15.97;100.00
9905;BME280;4991;43.566;27.820;2022-11-20T13:25:29;98362.66;;;16.03;100.00
9905;BME280;4991;43.566;27.820;2022-11-20T13:27:58;98366.16;;;16.15;100.00
9905;BME280;4991;43.566;27.820;2022-11-20T13:30:25;98373.63;;;16.30;100.00
9905;BME280;4991;43.566;27.820;2022-11-20T13:32:58;98371.34;;;16.32;100.00
9905;BME280;4991;43.566;27.820;2022-11-20T13:35:40;98366.00;;;15.96;100.00
9905;BME280;4991;43.566;27.820;2022-11-20T13:38:14;98363.22;;;15.69;100.00
9905;BME280;4991;43.566;27.820;2022-11-20T13:40:54;98357.19;;;15.63;100.00
9905;BME280;4991;43.566;27.820;2022-11-20T13:46:07;98358.78;;;15.64;100.00
9905;BME280;4991;43.566;27.820;2022-11-20T13:48:44;98360.94;;;15.71;100.00
9905;BME280;4991;43.566;27.820;2022-11-20T13:51:46;98359.97;;;15.51;100.00
9905;BME280;4991;43.566;27.820;2022-11-20T13:54:52;98358.75;;;15.76;100.00
9905;BME280;4991;43.566;27.820;2022-11-20T13:57:35;98366.06;;;15.72;100.00
9905;BME280;4991;43.566;27.820;2022-11-20T14:00:22;98363.84;;;15.26;100.00
9905;BME280;4991;43.566;27.820;2022-11-20T14:03:08;98363.63;;;14.95;100.00
9905;BME280;4991;43.566;27.820;2022-11-20T14:05:40;98365.91;;;14.69;100.00
9905;BME280;4991;43.566;27.820;2022-11-20T14:08:24;98360.84;;;14.47;100.00
9905;BME280;4991;43.566;27.820;2022-11-20T14:11:06;98369.50;;;14.37;100.00
9905;BME280;4991;43.566;27.820;2022-11-20T14:13:38;98360.03;;;14.13;100.00
9905;BME280;4991;43.566;27.820;2022-11-20T14:16:03;98371.53;;;14.07;100.00
9905;BME280;4991;43.566;27.820;2022-11-20T14:18:29;98378.59;;;14.08;100.00
9905;BME280;4991;43.566;27.820;2022-11-20T14:21:00;98378.56;;;13.96;100.00
9905;BME280;4991;43.566;27.820;2022-11-20T14:23:28;98384.03;;;13.96;100.00
9905;BME280;4991;43.566;27.820;2022-11-20T14:25:54;98374.75;;;14.09;100.00
9905;BME280;4991;43.566;27.820;2022-11-20T14:28:28;98376.53;;;14.05;100.00
9905;BME280;4991;43.566;27.820;2022-11-20T14:30:56;98344.84;;;14.04;100.00
9905;BME280;4991;43.566;27.820;2022-11-20T14:33:22;98366.53;;;14.09;100.00
9905;BME280;4991;43.566;27.820;2022-11-20T14:35:57;98374.97;;;14.16;100.00
9905;BME280;4991;43.566;27.820;2022-11-20T14:38:28;98373.03;;;14.37;100.00